Time;durP1;ratioP1;P1;durP2;ratioP2;P2;SDS_P1;SDS_P2;PMS_P1;PMS_P2;Temp;Humidity;BMP_temperature;BMP_pressure;BME280_temperature;BME280_humidity;BME280_pressure;Samples;Min_cycle;Max_cycle;Signal;HPM_P1;HPM_P2
2022/12/05 00:01:35;;;;;;;46.90;21.33;;;4.50;1.00;;;;;;6184634;23;20190;-47
2022/12/05 00:04:04;;;;;;;39.53;19.90;;;4.50;99.90;;;;;;6184629;23;20218;-48
2022/12/05 00:06:30;;;;;;;44.60;20.90;;;4.40;99.90;;;;;;6184591;23;20437;-48
2022/12/05 00:08:57;;;;;;;43.50;19.87;;;4.40;99.90;;;;;;6184853;23;20378;-48
2022/12/05 00:11:28;;;;;;;45.10;20.63;;;4.40;1.00;;;;;;6184509;23;20429;-49
2022/12/05 00:13:55;;;;;;;44.20;19.97;;;4.40;1.00;;;;;;6184485;23;20718;-47
2022/12/05 00:16:23;;;;;;;37.07;19.53;;;4.40;1.00;;;;;;6184619;23;20370;-48
2022/12/05 00:18:49;;;;;;;38.50;18.93;;;4.40;1.00;;;;;;6184577;23;20389;-48
2022/12/05 00:21:18;;;;;;;37.10;19.20;;;4.40;99.90;;;;;;6184422;23;20366;-48
2022/12/05 00:23:43;;;;;;;38.77;19.13;;;4.40;1.00;;;;;;6184413;23;20421;-48
2022/12/05 00:26:10;;;;;;;35.60;18.47;;;4.30;7.90;;;;;;6184332;23;20386;-48
2022/12/05 00:28:35;;;;;;;38.90;20.20;;;4.30;99.90;;;;;;6184858;23;20185;-48
2022/12/05 00:31:07;;;;;;;38.20;20.40;;;4.30;1.00;;;;;;6184588;23;20422;-48
2022/12/05 00:33:32;;;;;;;44.43;20.20;;;4.30;1.00;;;;;;6184344;23;20198;-48
2022/12/05 00:36:03;;;;;;;46.17;21.50;;;4.30;99.90;;;;;;6184065;23;20390;-48
2022/12/05 00:38:29;;;;;;;39.83;19.70;;;4.40;99.90;;;;;;6157925;23;20203;-48
2022/12/05 00:40:55;;;;;;;39.40;20.27;;;4.30;99.90;;;;;;6157811;23;20411;-48
2022/12/05 00:43:20;;;;;;;42.37;21.57;;;4.40;99.90;;;;;;6184043;23;20150;-48
2022/12/05 00:45:46;;;;;;;36.30;19.00;;;4.40;99.90;;;;;;6184441;23;20159;-48
2022/12/05 00:48:11;;;;;;;38.00;18.53;;;4.40;99.90;;;;;;6183772;23;20873;-48
2022/12/05 00:50:37;;;;;;;37.33;20.13;;;4.40;99.90;;;;;;6183923;23;20503;-48
2022/12/05 00:53:02;;;;;;;39.23;19.20;;;4.40;1.00;;;;;;6184033;23;20520;-48
2022/12/05 00:55:28;;;;;;;35.27;18.70;;;4.40;1.00;;;;;;6184136;23;20144;-48
2022/12/05 00:57:53;;;;;;;36.70;18.73;;;4.40;1.00;;;;;;6183945;23;20158;-48
2022/12/05 01:00:19;;;;;;;34.67;17.70;;;4.40;1.00;;;;;;6184145;23;20154;-48
2022/12/05 01:02:45;;;;;;;42.13;20.87;;;4.40;1.00;;;;;;6176467;23;20144;-48
2022/12/05 01:05:10;;;;;;;37.73;19.13;;;4.50;1.00;;;;;;6183935;23;20213;-48
2022/12/05 01:07:36;;;;;;;38.07;18.70;;;4.50;1.00;;;;;;6184176;23;20151;-48
2022/12/05 01:10:02;;;;;;;34.50;19.07;;;4.50;1.00;;;;;;6183924;23;20241;-48
2022/12/05 01:12:27;;;;;;;34.13;18.93;;;4.50;1.00;;;;;;6184050;23;20239;-48
2022/12/05 01:14:53;;;;;;;38.00;19.10;;;4.50;99.90;;;;;;6184433;23;20139;-48
2022/12/05 01:17:19;;;;;;;32.87;18.03;;;4.50;99.90;;;;;;6183682;23;20234;-48
2022/12/05 01:19:44;;;;;;;36.67;18.90;;;4.50;99.90;;;;;;6183909;23;20173;-48
2022/12/05 01:22:10;;;;;;;35.33;18.20;;;4.60;99.90;;;;;;6183853;23;20154;-48
2022/12/05 01:24:35;;;;;;;36.83;19.53;;;4.50;99.90;;;;;;6183755;23;20183;-48
2022/12/05 01:27:01;;;;;;;34.80;19.10;;;4.50;99.90;;;;;;6183811;23;20140;-48
2022/12/05 01:29:27;;;;;;;36.73;19.00;;;4.50;99.90;;;;;;6183311;23;20238;-53
2022/12/05 01:31:53;;;;;;;35.17;19.20;;;4.50;99.90;;;;;;6183692;23;20179;-47
2022/12/05 01:34:19;;;;;;;32.10;17.43;;;4.50;99.90;;;;;;6183717;23;20460;-47
2022/12/05 01:36:46;;;;;;;34.50;18.43;;;4.60;99.90;;;;;;6157478;23;20386;-48
2022/12/05 01:39:12;;;;;;;37.00;19.07;;;4.60;99.90;;;;;;6183719;23;20438;-48
2022/12/05 01:41:41;;;;;;;34.07;18.23;;;4.60;99.90;;;;;;6176122;23;20742;-49
2022/12/05 01:44:26;;;;;;;38.03;19.77;;;4.60;99.90;;;;;;6183419;23;20374;-48
2022/12/05 01:46:53;;;;;;;37.27;20.80;;;4.60;99.90;;;;;;6183837;23;20821;-48
2022/12/05 01:49:35;;;;;;;39.73;19.17;;;4.60;99.90;;;;;;6183657;23;20377;-48
2022/12/05 01:52:06;;;;;;;35.10;18.63;;;4.60;99.90;;;;;;6183567;23;20371;-48
2022/12/05 01:54:35;;;;;;;35.90;18.90;;;4.60;99.90;;;;;;6183555;23;20802;-47
2022/12/05 01:57:12;;;;;;;35.70;18.70;;;4.70;1.00;;;;;;6183544;23;20405;-48
2022/12/05 01:59:41;;;;;;;30.53;18.20;;;4.70;1.00;;;;;;6183228;23;20728;-49
2022/12/05 02:02:07;;;;;;;38.03;19.30;;;4.70;1.00;;;;;;6183310;23;20833;-48
2022/12/05 02:04:38;;;;;;;32.43;18.37;;;4.70;1.00;;;;;;6157509;23;20394;-48
2022/12/05 02:07:04;;;;;;;33.57;17.77;;;4.70;1.00;;;;;;6183757;23;20478;-48
2022/12/05 02:09:29;;;;;;;31.73;17.93;;;4.70;1.00;;;;;;6183820;23;20414;-48
2022/12/05 02:12:00;;;;;;;34.10;18.20;;;4.70;1.00;;;;;;6183816;23;20151;-49
2022/12/05 02:14:39;;;;;;;39.70;19.13;;;4.60;1.00;;;;;;6183224;23;20144;-48
2022/12/05 02:17:25;;;;;;;33.63;17.70;;;4.70;1.00;;;;;;6183468;23;20369;-48
2022/12/05 02:20:03;;;;;;;36.60;19.40;;;4.70;1.00;;;;;;6183365;23;20375;-48
2022/12/05 02:22:58;;;;;;;33.00;18.30;;;4.70;1.00;;;;;;6183447;23;20375;-48
2022/12/05 02:25:59;;;;;;;33.70;17.77;;;4.80;1.00;;;;;;6183189;23;20884;-48
2022/12/05 02:28:33;;;;;;;38.10;18.57;;;4.80;1.00;;;;;;6091973;23;20396;-48
2022/12/05 02:31:07;;;;;;;37.37;18.77;;;4.80;1.00;;;;;;6169925;23;20433;-48
2022/12/05 02:33:52;;;;;;;40.33;19.83;;;4.80;1.00;;;;;;6183334;23;20904;-48
2022/12/05 02:36:46;;;;;;;38.87;20.37;;;4.80;1.00;;;;;;6183840;23;20442;-48
2022/12/05 02:39:31;;;;;;;35.97;18.97;;;4.80;1.00;;;;;;6172859;23;20453;-48
2022/12/05 02:42:14;;;;;;;37.13;19.67;;;4.80;8.30;;;;;;6183371;23;21168;-48
2022/12/05 02:45:00;;;;;;;42.17;20.70;;;4.80;23.80;;;;;;6182925;23;20369;-56
2022/12/05 02:47:30;;;;;;;39.50;21.13;;;4.80;44.80;;;;;;6156494;23;20414;-48
2022/12/05 02:49:57;;;;;;;42.03;21.37;;;4.80;68.50;;;;;;6156923;23;20514;-49
2022/12/05 02:52:23;;;;;;;43.93;20.17;;;4.80;94.80;;;;;;6183169;23;20381;-48
2022/12/05 02:54:52;;;;;;;44.83;21.97;;;4.80;99.90;;;;;;6175484;23;20359;-48
2022/12/05 02:57:20;;;;;;;44.40;20.60;;;4.80;99.90;;;;;;6183321;23;20398;-48
2022/12/05 02:59:46;;;;;;;53.33;23.53;;;4.80;99.90;;;;;;6183047;23;20383;-49
2022/12/05 03:02:28;;;;;;;45.70;22.27;;;4.80;99.90;;;;;;6156641;23;20852;-48
2022/12/05 03:05:15;;;;;;;47.80;21.93;;;4.80;99.90;;;;;;6183218;23;20144;-48
2022/12/05 03:07:44;;;;;;;40.93;21.07;;;4.90;99.90;;;;;;6183272;23;20681;-48
2022/12/05 03:10:11;;;;;;;44.53;21.73;;;4.80;99.90;;;;;;6183111;23;20420;-48
2022/12/05 03:12:42;;;;;;;44.60;21.23;;;4.80;99.90;;;;;;6185086;23;20381;-49
2022/12/05 03:15:17;;;;;;;42.10;20.93;;;4.80;99.90;;;;;;6185153;23;20402;-49
2022/12/05 03:17:53;;;;;;;49.37;20.63;;;4.80;99.90;;;;;;6177664;23;20369;-48
2022/12/05 03:20:25;;;;;;;43.07;20.87;;;4.80;99.90;;;;;;6185048;23;20453;-50
2022/12/05 03:23:06;;;;;;;44.43;21.47;;;4.80;99.90;;;;;;6184777;23;20389;-49
2022/12/05 03:25:58;;;;;;;48.90;22.90;;;4.80;99.90;;;;;;6184840;23;20449;-48
2022/12/05 03:28:43;;;;;;;41.77;20.20;;;4.80;99.90;;;;;;6184857;23;20358;-49
2022/12/05 03:31:13;;;;;;;40.40;19.43;;;4.80;99.90;;;;;;6185111;23;20422;-49
2022/12/05 03:33:44;;;;;;;44.67;20.57;;;4.90;99.90;;;;;;6184896;23;20401;-49
2022/12/05 03:36:21;;;;;;;40.47;19.40;;;4.90;99.90;;;;;;6184790;23;20445;-50
2022/12/05 03:38:56;;;;;;;46.87;21.30;;;4.90;99.90;;;;;;6184704;23;20468;-49
2022/12/05 03:41:36;;;;;;;45.37;22.30;;;4.90;99.90;;;;;;6184592;23;20381;-49
2022/12/05 03:44:16;;;;;;;41.63;21.23;;;4.90;99.90;;;;;;6184686;23;20367;-49
2022/12/05 03:46:45;;;;;;;40.70;19.93;;;4.90;99.90;;;;;;6184973;23;20393;-49
2022/12/05 03:49:19;;;;;;;46.93;20.97;;;4.90;99.90;;;;;;6177008;23;20420;-49
2022/12/05 03:52:14;;;;;;;40.67;21.80;;;4.90;99.90;;;;;;6184347;23;20421;-49
2022/12/05 03:54:49;;;;;;;54.10;23.80;;;4.90;99.90;;;;;;6184645;23;20644;-49
2022/12/05 03:57:18;;;;;;;47.90;22.77;;;4.90;99.90;;;;;;6184682;23;20408;-49
2022/12/05 03:59:51;;;;;;;45.13;22.30;;;4.90;99.90;;;;;;6184646;23;21193;-49
2022/12/05 04:02:48;;;;;;;46.70;21.83;;;4.90;99.90;;;;;;6183447;23;20382;-49
2022/12/05 04:05:42;;;;;;;52.57;23.27;;;4.90;99.90;;;;;;6142112;23;20382;-49
2022/12/05 04:08:14;;;;;;;45.80;21.80;;;4.90;99.90;;;;;;6183868;23;20401;-49
2022/12/05 04:10:49;;;;;;;47.20;22.70;;;5.00;99.90;;;;;;6158192;23;20500;-49
2022/12/05 04:13:31;;;;;;;54.47;25.50;;;4.90;99.90;;;;;;6184310;23;20389;-49
2022/12/05 04:22:33;;;;;;;49.50;23.53;;;4.90;99.90;;;;;;6161996;23;20437;-49
2022/12/05 04:27:56;;;;;;;60.03;24.57;;;4.90;99.90;;;;;;6184760;23;20357;-49
2022/12/05 04:30:25;;;;;;;57.07;24.77;;;4.90;99.90;;;;;;6184155;23;20414;-49
2022/12/05 04:33:01;;;;;;;51.03;24.43;;;4.90;99.90;;;;;;6184309;23;20367;-49
2022/12/05 04:35:31;;;;;;;51.10;25.37;;;4.90;99.90;;;;;;6184384;23;20371;-49
2022/12/05 04:38:20;;;;;;;51.33;22.90;;;4.90;99.90;;;;;;6184163;23;20726;-49
2022/12/05 04:40:54;;;;;;;50.90;24.70;;;5.00;99.90;;;;;;6183788;23;21047;-49
2022/12/05 04:43:21;;;;;;;46.77;22.10;;;5.00;99.90;;;;;;6184100;23;20462;-49
2022/12/05 04:45:50;;;;;;;48.70;23.93;;;5.00;99.90;;;;;;6184371;23;20379;-49
2022/12/05 04:48:17;;;;;;;57.00;24.80;;;4.90;99.90;;;;;;6176774;23;20841;-53
2022/12/05 04:50:46;;;;;;;51.17;24.40;;;4.90;99.90;;;;;;6183714;23;20425;-49
2022/12/05 04:53:13;;;;;;;54.93;24.23;;;4.90;99.90;;;;;;6184264;23;20383;-49
2022/12/05 04:55:42;;;;;;;50.67;22.30;;;4.90;99.90;;;;;;6184083;23;20363;-49
2022/12/05 04:58:17;;;;;;;55.93;24.57;;;4.80;99.90;;;;;;6184067;23;20458;-49
2022/12/05 05:00:55;;;;;;;53.37;23.97;;;4.90;99.90;;;;;;6183860;23;20835;-49
2022/12/05 05:03:24;;;;;;;56.00;25.50;;;4.80;99.90;;;;;;6183864;23;20474;-49
2022/12/05 05:05:52;;;;;;;50.23;23.90;;;4.80;99.90;;;;;;6183914;23;20806;-49
2022/12/05 05:08:20;;;;;;;57.63;23.60;;;4.80;99.90;;;;;;6183673;23;20383;-49
2022/12/05 05:11:14;;;;;;;51.50;24.60;;;4.80;99.90;;;;;;6183638;23;20410;-49
2022/12/05 05:13:40;;;;;;;52.67;23.50;;;4.80;99.90;;;;;;6184223;23;20402;-49
2022/12/05 05:16:06;;;;;;;54.70;25.67;;;4.80;99.90;;;;;;6183818;23;20367;-49
2022/12/05 05:18:32;;;;;;;58.33;25.03;;;4.70;99.90;;;;;;6183924;23;20461;-49
2022/12/05 05:20:58;;;;;;;51.40;23.87;;;4.70;99.90;;;;;;6183603;23;20378;-49
2022/12/05 05:23:23;;;;;;;55.30;23.77;;;4.70;99.90;;;;;;6183991;23;20390;-49
2022/12/05 05:25:54;;;;;;;56.50;23.97;;;4.70;99.90;;;;;;6183662;23;20194;-49
2022/12/05 05:28:20;;;;;;;59.80;25.47;;;4.70;99.90;;;;;;6183848;23;20155;-49
2022/12/05 05:30:46;;;;;;;54.30;25.37;;;4.70;99.90;;;;;;6183700;23;20911;-58
2022/12/05 05:33:12;;;;;;;56.20;24.30;;;4.70;99.90;;;;;;6183393;23;20367;-49
2022/12/05 05:35:37;;;;;;;57.43;24.10;;;4.70;1.00;;;;;;6184010;23;20168;-49
2022/12/05 05:38:03;;;;;;;51.07;22.33;;;4.70;1.00;;;;;;6183469;23;20159;-49
2022/12/05 05:40:29;;;;;;;51.53;23.33;;;4.70;1.00;;;;;;6183311;23;20203;-49
2022/12/05 05:42:55;;;;;;;59.97;24.77;;;4.70;1.00;;;;;;6183621;23;20532;-48
2022/12/05 05:45:20;;;;;;;61.30;24.57;;;4.80;1.00;;;;;;6183369;23;20382;-49
2022/12/05 05:47:49;;;;;;;57.30;24.37;;;4.70;1.00;;;;;;6183548;23;20242;-49
2022/12/05 05:50:15;;;;;;;61.63;25.07;;;4.70;1.00;;;;;;6183411;23;20175;-49
2022/12/05 05:52:41;;;;;;;57.50;24.67;;;4.70;99.90;;;;;;6183290;23;20440;-49
2022/12/05 05:55:07;;;;;;;65.93;27.53;;;4.70;99.90;;;;;;6183413;23;20367;-49
2022/12/05 05:57:33;;;;;;;67.20;26.43;;;4.70;99.90;;;;;;6183256;23;20144;-49
2022/12/05 05:59:59;;;;;;;65.73;26.03;;;4.70;99.90;;;;;;6183276;23;20461;-49
2022/12/05 06:02:24;;;;;;;59.53;25.33;;;4.70;99.90;;;;;;6156838;23;20449;-49
2022/12/05 06:04:50;;;;;;;62.80;26.80;;;4.60;99.90;;;;;;6183037;23;20148;-49
2022/12/05 06:07:15;;;;;;;61.10;26.40;;;4.60;99.90;;;;;;6183208;23;20162;-49
2022/12/05 06:09:41;;;;;;;67.30;25.57;;;4.70;99.90;;;;;;6183069;23;20224;-49
2022/12/05 06:12:07;;;;;;;67.43;25.13;;;4.60;99.90;;;;;;6183364;23;20201;-48
2022/12/05 06:14:32;;;;;;;60.17;25.80;;;4.60;99.90;;;;;;6183315;23;20210;-48
2022/12/05 06:16:58;;;;;;;63.30;25.97;;;4.60;99.90;;;;;;6183097;23;20219;-49
2022/12/05 06:19:23;;;;;;;63.83;25.07;;;4.60;99.90;;;;;;6183748;23;20156;-49
2022/12/05 06:21:49;;;;;;;66.77;26.40;;;4.60;99.90;;;;;;6183612;23;20159;-49
2022/12/05 06:24:16;;;;;;;56.97;24.03;;;4.60;99.90;;;;;;6183109;23;20148;-49
2022/12/05 06:26:42;;;;;;;71.37;27.23;;;4.60;99.90;;;;;;6183009;23;20241;-49
2022/12/05 06:29:08;;;;;;;73.23;27.70;;;4.60;99.90;;;;;;6183056;23;20821;-49
2022/12/05 06:31:34;;;;;;;74.83;27.30;;;4.60;99.90;;;;;;6182893;23;20430;-49
2022/12/05 06:34:04;;;;;;;79.50;27.87;;;4.60;99.90;;;;;;6183295;23;20425;-49
2022/12/05 06:36:30;;;;;;;78.03;28.07;;;4.60;99.90;;;;;;6175446;23;20158;-48
2022/12/05 06:38:57;;;;;;;82.83;27.90;;;4.60;99.90;;;;;;6183100;23;20496;-49
2022/12/05 06:41:26;;;;;;;76.10;27.27;;;4.60;99.90;;;;;;6183262;23;20403;-49
2022/12/05 06:43:57;;;;;;;80.87;27.57;;;4.50;99.90;;;;;;6182968;23;20434;-48
2022/12/05 06:46:23;;;;;;;75.87;28.20;;;4.50;99.90;;;;;;6182587;23;20374;-49
2022/12/05 06:48:51;;;;;;;83.23;26.60;;;4.50;99.90;;;;;;6183366;23;20367;-49
2022/12/05 06:51:17;;;;;;;71.27;28.20;;;4.50;99.90;;;;;;6183388;23;20445;-46
2022/12/05 06:53:43;;;;;;;76.10;26.70;;;4.50;99.90;;;;;;6183395;23;20794;-48
2022/12/05 06:56:12;;;;;;;85.80;28.33;;;4.50;99.90;;;;;;6183175;23;20151;-49
2022/12/05 06:58:39;;;;;;;77.57;27.77;;;4.50;99.90;;;;;;6182934;23;20365;-49
2022/12/05 07:03:49;;;;;;;79.43;28.30;;;4.50;99.90;;;;;;6182998;23;20390;-48
2022/12/05 07:06:16;;;;;;;94.23;28.80;;;4.40;99.90;;;;;;6183161;23;20367;-49
2022/12/05 07:08:42;;;;;;;96.80;29.60;;;4.40;99.90;;;;;;6183057;23;20840;-49
2022/12/05 07:11:08;;;;;;;84.37;28.40;;;4.40;99.90;;;;;;6183071;23;20422;-49
2022/12/05 07:13:33;;;;;;;82.00;27.50;;;4.40;99.90;;;;;;6183116;23;20373;-49
2022/12/05 07:15:59;;;;;;;94.73;28.50;;;4.30;99.90;;;;;;6156495;23;20174;-49
2022/12/05 07:18:25;;;;;;;76.40;26.37;;;4.30;99.90;;;;;;6182985;23;20215;-48
2022/12/05 07:21:06;;;;;;;100.50;28.50;;;4.40;99.90;;;;;;6182802;23;20608;-49
2022/12/05 07:23:32;;;;;;;87.17;27.97;;;4.30;99.90;;;;;;6182807;23;20367;-48
2022/12/05 07:25:58;;;;;;;104.10;33.30;;;4.30;99.90;;;;;;6156716;23;20398;-48
2022/12/05 07:28:23;;;;;;;88.83;27.30;;;4.30;99.90;;;;;;6182832;23;20187;-49
2022/12/05 07:30:59;;;;;;;85.53;28.30;;;4.30;99.90;;;;;;6182895;23;20421;-49
2022/12/05 07:33:24;;;;;;;81.40;28.93;;;4.30;99.90;;;;;;6183158;23;20143;-48
2022/12/05 07:35:50;;;;;;;79.53;27.53;;;4.30;99.90;;;;;;6182970;23;20375;-48
2022/12/05 07:38:15;;;;;;;91.70;27.77;;;4.20;99.90;;;;;;6183309;23;20167;-48
2022/12/05 07:40:41;;;;;;;79.00;27.40;;;4.30;99.90;;;;;;6182707;23;20237;-48
2022/12/05 07:43:06;;;;;;;91.13;27.90;;;4.30;99.90;;;;;;6182804;23;20163;-48
2022/12/05 07:45:34;;;;;;;93.87;28.97;;;4.20;99.90;;;;;;6182489;23;20154;-48
2022/12/05 07:48:00;;;;;;;90.90;30.00;;;4.20;99.90;;;;;;6182770;23;20159;-48
2022/12/05 07:50:25;;;;;;;86.07;28.93;;;4.20;99.90;;;;;;6182581;23;20433;-49
2022/12/05 07:52:51;;;;;;;87.23;28.47;;;4.20;99.90;;;;;;6156566;23;20170;-48
2022/12/05 07:55:17;;;;;;;81.23;27.83;;;4.20;99.90;;;;;;6183026;23;20150;-49
2022/12/05 07:57:42;;;;;;;86.83;28.10;;;4.10;99.90;;;;;;6183815;23;20488;-48
2022/12/05 08:00:08;;;;;;;78.77;27.37;;;4.10;99.90;;;;;;6186157;23;20499;-48
2022/12/05 08:02:34;;;;;;;79.33;26.37;;;4.10;99.90;;;;;;6184917;23;20698;-48
2022/12/05 08:05:00;;;;;;;71.37;26.77;;;4.10;99.90;;;;;;6184386;23;20418;-48
2022/12/05 08:07:25;;;;;;;63.87;24.60;;;4.10;99.90;;;;;;6184329;23;20193;-49
2022/12/05 08:09:51;;;;;;;82.63;26.87;;;4.10;99.90;;;;;;6184409;23;20628;-48
2022/12/05 08:12:16;;;;;;;68.57;25.33;;;4.00;99.90;;;;;;6184691;23;20649;-48
2022/12/05 08:14:42;;;;;;;66.77;24.03;;;4.10;99.90;;;;;;6184823;23;20175;-48
2022/12/05 08:17:07;;;;;;;71.43;24.87;;;4.00;99.90;;;;;;6158080;23;20163;-47
2022/12/05 08:19:33;;;;;;;71.37;26.33;;;4.00;99.90;;;;;;6184154;23;20139;-48
2022/12/05 08:21:59;;;;;;;76.83;24.70;;;3.90;99.90;;;;;;6184269;23;20167;-48
2022/12/05 08:24:24;;;;;;;65.33;26.00;;;3.90;99.90;;;;;;6176810;23;20173;-48
2022/12/05 08:26:50;;;;;;;69.37;24.43;;;3.90;99.90;;;;;;6184100;23;20147;-48
2022/12/05 08:29:20;;;;;;;64.93;25.60;;;3.90;99.90;;;;;;6184372;23;20499;-48
2022/12/05 08:31:48;;;;;;;71.37;27.60;;;3.90;94.40;;;;;;6184126;23;20202;-48
2022/12/05 08:34:15;;;;;;;70.70;24.70;;;3.80;85.50;;;;;;6184186;23;20881;-48
2022/12/05 08:36:41;;;;;;;64.87;24.60;;;3.80;89.10;;;;;;6184058;23;20441;-48
2022/12/05 08:39:10;;;;;;;68.60;25.70;;;3.80;95.80;;;;;;6184136;23;20434;-48
2022/12/05 08:41:36;;;;;;;76.07;25.50;;;3.80;99.90;;;;;;6183837;23;20370;-48
2022/12/05 08:44:04;;;;;;;72.43;24.27;;;3.80;99.90;;;;;;6149577;23;20409;-48
2022/12/05 08:46:32;;;;;;;61.50;24.43;;;3.80;99.90;;;;;;6184175;23;20148;-48
2022/12/05 08:48:58;;;;;;;66.47;25.00;;;3.80;99.90;;;;;;6183955;23;20471;-48
2022/12/05 08:51:24;;;;;;;66.20;24.23;;;3.80;97.10;;;;;;6184515;23;20437;-48
2022/12/05 08:53:49;;;;;;;71.20;25.53;;;3.80;99.90;;;;;;6184094;23;20390;-48
2022/12/05 08:56:15;;;;;;;65.13;25.90;;;3.80;99.90;;;;;;6183710;23;20491;-48
2022/12/05 08:58:41;;;;;;;75.23;25.93;;;3.80;99.90;;;;;;6183856;23;20147;-48
2022/12/05 09:01:15;;;;;;;71.80;26.03;;;3.80;99.90;;;;;;6184098;23;20575;-48
2022/12/05 09:03:42;;;;;;;79.37;25.17;;;3.80;99.90;;;;;;6184008;23;20155;-49
2022/12/05 09:06:13;;;;;;;67.73;24.70;;;3.80;99.90;;;;;;6183965;23;20833;-48
2022/12/05 09:08:40;;;;;;;67.80;24.77;;;3.80;99.90;;;;;;6175732;23;20394;-48
2022/12/05 09:11:12;;;;;;;71.90;26.30;;;3.90;99.90;;;;;;6183762;23;20753;-48
2022/12/05 09:13:38;;;;;;;64.80;24.10;;;3.80;92.20;;;;;;6184134;23;20363;-48
2022/12/05 09:16:13;;;;;;;68.97;23.80;;;3.80;53.80;;;;;;6184032;23;20453;-48
2022/12/05 09:18:38;;;;;;;62.47;23.77;;;3.70;20.40;;;;;;6183890;23;20382;-48
2022/12/05 09:21:12;;;;;;;64.00;24.33;;;3.70;21.90;;;;;;6183991;23;20411;-49
2022/12/05 09:23:38;;;;;;;62.17;22.63;;;3.70;21.20;;;;;;6184363;23;20462;-49
2022/12/05 09:26:05;;;;;;;66.83;24.00;;;3.60;21.30;;;;;;6184065;23;20389;-48
2022/12/05 09:28:32;;;;;;;65.03;21.73;;;3.60;32.80;;;;;;6184244;23;20374;-48
2022/12/05 09:31:01;;;;;;;66.23;22.97;;;3.60;43.40;;;;;;6183928;23;20441;-51
2022/12/05 09:33:27;;;;;;;66.73;23.30;;;3.60;55.50;;;;;;6184077;23;20370;-49
2022/12/05 09:35:53;;;;;;;77.97;25.43;;;3.60;77.80;;;;;;6184051;23;20395;-48
2022/12/05 09:38:19;;;;;;;63.33;22.80;;;3.60;93.60;;;;;;6184060;23;20401;-48
2022/12/05 09:40:44;;;;;;;73.13;24.70;;;3.60;99.90;;;;;;6183790;23;20202;-48
2022/12/05 09:43:30;;;;;;;78.20;23.47;;;3.50;99.90;;;;;;6184405;23;20154;-49
2022/12/05 09:46:06;;;;;;;66.37;21.90;;;3.50;99.90;;;;;;6183998;23;20147;-49
2022/12/05 09:48:32;;;;;;;60.87;21.83;;;3.50;99.90;;;;;;6183899;23;20819;-48
2022/12/05 09:51:02;;;;;;;57.23;21.43;;;3.50;99.90;;;;;;6183443;23;20437;-48
2022/12/05 09:53:32;;;;;;;63.47;21.20;;;3.50;99.90;;;;;;6183895;23;20170;-48
2022/12/05 09:56:31;;;;;;;56.70;20.43;;;3.50;99.90;;;;;;6183230;23;20845;-48
2022/12/05 09:58:59;;;;;;;52.53;20.00;;;3.50;99.90;;;;;;6184094;23;20371;-48
2022/12/05 10:01:49;;;;;;;69.13;21.37;;;3.40;99.90;;;;;;6184219;23;20430;-48
2022/12/05 10:04:27;;;;;;;58.27;21.03;;;3.40;99.90;;;;;;6184169;23;20359;-48
2022/12/05 10:07:06;;;;;;;66.57;25.00;;;3.50;99.90;;;;;;6174218;23;20383;-50
2022/12/05 10:09:55;;;;;;;62.93;22.97;;;3.50;99.90;;;;;;6182779;23;20374;-48
2022/12/05 10:12:36;;;;;;;63.00;20.97;;;3.50;99.90;;;;;;6182000;23;20378;-48
2022/12/05 10:15:07;;;;;;;54.67;19.80;;;3.50;99.90;;;;;;6179410;23;20374;-49
2022/12/05 10:17:37;;;;;;;56.37;20.47;;;3.50;99.90;;;;;;6179636;23;20379;-48
2022/12/05 10:20:16;;;;;;;49.90;18.53;;;3.50;99.90;;;;;;6153374;23;20390;-49
2022/12/05 10:22:52;;;;;;;46.47;19.80;;;3.50;99.90;;;;;;6182301;23;21130;-48
2022/12/05 10:25:20;;;;;;;50.00;19.23;;;3.50;99.90;;;;;;6182266;23;20355;-48
2022/12/05 10:27:56;;;;;;;57.27;20.73;;;3.50;99.90;;;;;;6180041;23;20366;-48
2022/12/05 10:30:23;;;;;;;56.10;21.70;;;3.40;99.90;;;;;;6178260;23;20426;-48
2022/12/05 10:32:51;;;;;;;54.93;20.90;;;3.50;99.90;;;;;;6180131;23;20845;-48
2022/12/05 10:35:19;;;;;;;53.00;21.80;;;3.40;99.90;;;;;;6181061;23;20359;-49
2022/12/05 10:37:54;;;;;;;53.87;21.53;;;3.40;99.90;;;;;;6180516;23;20395;-49
2022/12/05 10:40:19;;;;;;;58.27;21.37;;;3.40;99.90;;;;;;6178709;23;20446;-48
2022/12/05 10:42:47;;;;;;;54.83;21.17;;;3.40;99.90;;;;;;6181117;23;20370;-49
2022/12/05 10:45:22;;;;;;;54.57;22.10;;;3.40;99.90;;;;;;6181211;23;20199;-48
2022/12/05 10:47:52;;;;;;;58.43;20.47;;;3.40;99.90;;;;;;6154524;23;20455;-48
2022/12/05 10:50:35;;;;;;;54.33;21.93;;;3.40;99.90;;;;;;6179841;23;20422;-49
2022/12/05 10:53:03;;;;;;;49.70;20.03;;;3.40;99.90;;;;;;6179177;23;20726;-48
2022/12/05 10:55:54;;;;;;;57.20;21.93;;;3.40;99.90;;;;;;6180262;23;20441;-48
2022/12/05 10:58:25;;;;;;;55.57;20.90;;;3.50;99.90;;;;;;6176622;23;20397;-49
2022/12/05 11:00:54;;;;;;;62.10;20.40;;;3.50;99.90;;;;;;6179228;23;20533;-49
2022/12/05 11:03:31;;;;;;;56.00;21.50;;;3.50;99.90;;;;;;6180721;23;20359;-48
2022/12/05 11:06:00;;;;;;;61.10;21.33;;;3.60;99.90;;;;;;6181088;23;20390;-48
2022/12/05 11:08:31;;;;;;;54.70;21.77;;;3.60;99.90;;;;;;6181025;23;20844;-49
2022/12/05 11:11:06;;;;;;;64.53;20.77;;;3.60;99.90;;;;;;6179399;23;20418;-49
2022/12/05 11:13:33;;;;;;;56.10;20.73;;;3.60;99.90;;;;;;6179675;23;20358;-48
2022/12/05 11:16:00;;;;;;;61.70;22.20;;;3.60;99.90;;;;;;6182087;23;20355;-49
2022/12/05 11:18:26;;;;;;;66.27;23.27;;;3.60;99.90;;;;;;6181231;23;20817;-48
2022/12/05 11:20:52;;;;;;;54.30;21.20;;;3.60;99.90;;;;;;6183280;23;20682;-48
2022/12/05 11:23:28;;;;;;;52.50;21.07;;;3.60;99.90;;;;;;6183420;23;20420;-49
2022/12/05 11:25:55;;;;;;;50.90;21.00;;;3.60;99.90;;;;;;6183739;23;20625;-49
2022/12/05 11:28:22;;;;;;;49.77;20.60;;;3.50;99.90;;;;;;6183233;23;20371;-49
2022/12/05 11:31:05;;;;;;;52.10;21.60;;;3.50;99.90;;;;;;6183019;23;20529;-49
2022/12/05 11:33:35;;;;;;;49.77;19.10;;;3.50;99.90;;;;;;6185012;23;20417;-50
2022/12/05 11:36:21;;;;;;;43.80;20.10;;;3.50;99.90;;;;;;6184925;23;20441;-49
2022/12/05 11:38:47;;;;;;;53.00;21.47;;;3.50;99.90;;;;;;6184998;23;20386;-49
2022/12/05 11:41:43;;;;;;;49.83;21.10;;;3.50;99.90;;;;;;6185219;23;20370;-49
2022/12/05 11:44:09;;;;;;;54.00;21.30;;;3.50;99.90;;;;;;6179243;23;20481;-48
2022/12/05 11:46:56;;;;;;;55.80;22.23;;;3.50;99.90;;;;;;6184780;23;20923;-49
2022/12/05 11:49:39;;;;;;;50.13;20.07;;;3.50;99.90;;;;;;6185043;23;20155;-51
2022/12/05 11:52:24;;;;;;;51.97;22.53;;;3.40;99.90;;;;;;6184707;23;20883;-49
2022/12/05 11:55:04;;;;;;;47.97;19.63;;;3.40;99.90;;;;;;6184436;23;20428;-49
2022/12/05 11:58:03;;;;;;;50.40;19.83;;;3.50;99.90;;;;;;6184716;23;20362;-49
2022/12/05 12:00:47;;;;;;;63.33;25.83;;;3.50;99.90;;;;;;6184946;23;20369;-48
2022/12/05 12:03:37;;;;;;;43.37;19.83;;;3.50;99.90;;;;;;6184600;23;20382;-48
2022/12/05 12:06:11;;;;;;;43.93;19.17;;;3.60;99.90;;;;;;6184668;23;20672;-49
2022/12/05 12:09:22;;;;;;;37.20;17.93;;;3.60;99.90;;;;;;6185047;23;20513;-48
2022/12/05 12:12:09;;;;;;;45.00;18.80;;;3.60;99.90;;;;;;6149833;23;20476;-48
2022/12/05 12:14:49;;;;;;;44.73;18.50;;;3.60;99.90;;;;;;6184849;23;20454;-49
2022/12/05 12:17:17;;;;;;;46.57;20.27;;;3.70;99.90;;;;;;6184863;23;20891;-49
2022/12/05 12:19:59;;;;;;;45.00;19.90;;;3.60;99.90;;;;;;6184726;23;20367;-48
2022/12/05 12:23:04;;;;;;;43.13;20.33;;;3.60;99.90;;;;;;6184723;23;20775;-47
2022/12/05 12:25:49;;;;;;;38.60;16.53;;;3.60;99.90;;;;;;6184842;23;20424;-49
2022/12/05 12:28:30;;;;;;;52.20;19.40;;;3.60;99.90;;;;;;6184588;23;20672;-49
2022/12/05 12:31:43;;;;;;;41.33;17.83;;;3.50;99.90;;;;;;6157743;23;20429;-48
2022/12/05 12:34:47;;;;;;;39.40;17.87;;;3.50;99.90;;;;;;6092760;23;20413;-49
2022/12/05 12:37:37;;;;;;;45.80;18.60;;;3.50;99.90;;;;;;6069020;23;20885;-47
2022/12/05 12:40:15;;;;;;;39.30;18.70;;;3.50;99.90;;;;;;6174166;23;20475;-48
2022/12/05 12:42:56;;;;;;;39.53;17.63;;;3.50;99.90;;;;;;6184295;23;20493;-48
2022/12/05 12:45:34;;;;;;;38.90;18.53;;;3.50;99.90;;;;;;6184081;23;20367;-48
2022/12/05 12:48:25;;;;;;;45.50;20.13;;;3.50;99.90;;;;;;6157815;23;20829;-48
2022/12/05 12:50:53;;;;;;;44.90;18.70;;;3.50;99.90;;;;;;6184541;23;20516;-46
2022/12/05 12:53:54;;;;;;;41.10;18.83;;;3.50;99.90;;;;;;6184127;23;20367;-48
2022/12/05 12:56:57;;;;;;;42.30;18.60;;;3.50;99.90;;;;;;6164999;23;20425;-46
2022/12/05 12:59:38;;;;;;;42.00;17.83;;;3.60;99.90;;;;;;6137760;23;20398;-46
2022/12/05 13:02:34;;;;;;;47.37;20.47;;;3.60;99.90;;;;;;6184127;23;20398;-46
2022/12/05 13:05:19;;;;;;;43.27;18.03;;;3.60;99.90;;;;;;6184592;23;20366;-46
2022/12/05 13:07:53;;;;;;;43.37;17.70;;;3.60;99.90;;;;;;6183974;23;20428;-46
2022/12/05 13:10:33;;;;;;;36.40;16.80;;;3.50;99.90;;;;;;6183997;23;20445;-47
2022/12/05 13:13:01;;;;;;;37.23;17.23;;;3.50;99.90;;;;;;6180173;23;20363;-46
2022/12/05 13:15:33;;;;;;;38.03;17.43;;;3.50;99.90;;;;;;6181609;23;20394;-46